RJOO

Osaka International Airport

Airport
ICAO code
RJOO
IATA Code
ITM
Summary
ICAO Region
APAC
ICAO Territory
Location

Itami, Hyogo Prefecture

Serving
Itami, Ikeda and Toyonaka
Elevation
39 ft
Coordinates
34° 47' 2" N , 135° 26' 23" E
KCC
Metar
Observation
RJOO 062300Z 07003KT 020V100 9999 FEW025 SCT070 BKN110 07/01 Q1020
Station
Osaka International Airport
Date/Time
2023-02-07 00:00:00
Wind direction
70°
Wind speed
03 kts
Lowest cloud amount
few clouds
Temperature
7°C
Dew point
1°C
Humidity
65%
QNH
1020 hPa
Weather condition
n/a

Osaka International Airport is the primary domestic airport for the Kansai region of Japan, including the major cities of Osaka, Kyoto, and Kobe.

Climatology

Humid subtropical climate (Köppen climate classification Cfa).

Runways

Designator Length Width Surface Rops
14L/32R 1828 46 ASP Yes/Yes
14R/32L 2999 61 CON Yes/Yes

Airport map

Aerial View

SKYbrary Partners:

Safety knowledge contributed by: